createdAt,value
2019-04-27T00:01:48.582Z,14.94
2019-04-27T00:04:26.778Z,14.88
2019-04-27T00:06:58.830Z,14.83
2019-04-27T00:09:50.213Z,14.79
2019-04-27T00:12:22.366Z,14.77
2019-04-27T00:14:54.440Z,14.76
2019-04-27T00:17:48.568Z,14.68
2019-04-27T00:20:13.192Z,14.67
2019-04-27T00:22:53.531Z,14.59
2019-04-27T00:25:26.903Z,14.52
2019-04-27T00:27:56.161Z,14.52
2019-04-27T00:30:26.626Z,14.47
2019-04-27T00:32:57.115Z,14.45
2019-04-27T00:35:33.481Z,14.43
2019-04-27T00:38:05.555Z,14.43
2019-04-27T00:40:37.646Z,14.38
2019-04-27T00:43:09.321Z,14.29
2019-04-27T00:45:39.801Z,14.23
2019-04-27T00:48:10.246Z,14.15
2019-04-27T00:50:40.634Z,14.14
2019-04-27T00:53:11.080Z,14.09
2019-04-27T00:55:46.991Z,14.06
2019-04-27T00:58:23.097Z,14.06
2019-04-27T01:00:55.290Z,14.01
2019-04-27T01:03:39.464Z,13.99
2019-04-27T01:06:10.045Z,13.97
2019-04-27T01:08:40.508Z,13.89
2019-04-27T01:11:12.038Z,13.85
2019-04-27T01:13:43.422Z,13.80
2019-04-27T01:16:17.341Z,13.79
2019-04-27T01:18:48.855Z,13.75
2019-04-27T01:21:19.624Z,13.68
2019-04-27T01:23:51.214Z,13.64
2019-04-27T01:26:23.251Z,13.54
2019-04-27T01:29:01.147Z,13.46
2019-04-27T01:31:31.724Z,13.33
2019-04-27T01:34:03.320Z,13.28
2019-04-27T01:36:33.796Z,13.24
2019-04-27T01:39:08.520Z,13.14
2019-04-27T01:41:39.240Z,13.08
2019-04-27T01:44:10.747Z,13.00
2019-04-27T01:46:42.262Z,13.04
2019-04-27T01:49:12.751Z,13.02
2019-04-27T01:51:43.309Z,13.04
2019-04-27T01:54:15.409Z,12.97
2019-04-27T01:56:47.030Z,12.89
2019-04-27T01:59:17.496Z,12.83
2019-04-27T02:02:08.767Z,12.85
2019-04-27T02:04:49.395Z,12.80
2019-04-27T02:07:19.986Z,12.76
2019-04-27T02:09:50.433Z,12.73
2019-04-27T02:12:21.852Z,12.68
2019-04-27T02:14:52.352Z,12.66
2019-04-27T02:17:22.830Z,12.65
2019-04-27T02:19:53.526Z,12.79
2019-04-27T02:22:25.319Z,12.79
2019-04-27T02:24:59.103Z,12.63
2019-04-27T02:27:30.822Z,12.55
2019-04-27T02:30:02.892Z,12.51
2019-04-27T02:32:35.382Z,12.44
2019-04-27T02:35:09.180Z,12.44
2019-04-27T02:37:40.426Z,12.49
2019-04-27T02:40:20.450Z,12.53
2019-04-27T02:42:54.506Z,12.51
2019-04-27T02:45:22.890Z,12.74
2019-04-27T02:47:53.405Z,12.49
2019-04-27T02:50:23.904Z,12.56
2019-04-27T02:52:54.384Z,12.74
2019-04-27T02:55:24.898Z,12.62
2019-04-27T02:57:55.316Z,12.63
2019-04-27T03:00:29.218Z,12.73
2019-04-27T03:03:02.415Z,12.63
2019-04-27T03:05:32.958Z,12.66
2019-04-27T03:08:04.427Z,12.87
2019-04-27T03:10:36.547Z,13.07
2019-04-27T03:13:14.695Z,12.94
2019-04-27T03:15:49.761Z,12.99
2019-04-27T03:18:29.705Z,12.99
2019-04-27T03:21:04.608Z,13.05
2019-04-27T03:23:35.078Z,13.12
2019-04-27T03:26:16.425Z,13.19
2019-04-27T03:28:46.895Z,13.32
2019-04-27T03:31:21.058Z,13.36
2019-04-27T03:33:52.826Z,13.51
2019-04-27T03:36:21.873Z,13.58
2019-04-27T03:38:52.478Z,14.07
2019-04-27T03:41:22.978Z,14.49
2019-04-27T03:43:53.481Z,14.57
2019-04-27T03:46:23.952Z,14.66
2019-04-27T03:48:54.456Z,14.99
2019-04-27T03:51:26.565Z,14.87
2019-04-27T03:54:00.388Z,15.03
2019-04-27T03:56:36.078Z,15.21
2019-04-27T03:59:10.123Z,15.31
2019-04-27T04:01:40.276Z,15.50
2019-04-27T04:04:10.766Z,16.00
2019-04-27T04:06:41.277Z,16.16
2019-04-27T04:09:13.473Z,16.26
2019-04-27T04:11:49.184Z,16.71
2019-04-27T04:14:24.248Z,16.84
2019-04-27T04:17:02.670Z,17.39
2019-04-27T04:19:47.703Z,18.09
2019-04-27T04:22:04.557Z,18.30
2019-04-27T04:24:35.005Z,18.50
2019-04-27T04:27:05.560Z,18.64
2019-04-27T04:29:36.062Z,18.94
2019-04-27T04:32:06.524Z,18.93
2019-04-27T04:34:36.984Z,19.56
2019-04-27T04:37:09.265Z,19.94
2019-04-27T04:39:40.302Z,20.17
2019-04-27T04:42:12.844Z,20.30
2019-04-27T04:44:49.984Z,20.53
2019-04-27T04:47:21.274Z,20.86
2019-04-27T04:50:07.568Z,21.25
2019-04-27T04:52:29.497Z,21.63
2019-04-27T04:55:02.690Z,21.59
2019-04-27T04:57:34.078Z,21.68
2019-04-27T05:00:05.877Z,21.65
2019-04-27T05:02:36.341Z,22.00
2019-04-27T05:05:07.007Z,22.27
2019-04-27T05:07:38.764Z,22.57
2019-04-27T05:10:09.473Z,22.56
2019-04-27T05:12:39.953Z,23.06
2019-04-27T05:15:11.626Z,23.10
2019-04-27T05:17:43.209Z,24.87
2019-04-27T05:20:32.035Z,24.03
2019-04-27T05:23:04.557Z,23.94
2019-04-27T05:25:35.039Z,24.08
2019-04-27T05:28:06.563Z,24.43
2019-04-27T05:30:38.907Z,24.31
2019-04-27T05:33:10.282Z,26.77
2019-04-27T05:35:41.865Z,25.41
2019-04-27T05:38:13.561Z,25.31
2019-04-27T05:40:44.261Z,25.62
2019-04-27T05:43:17.364Z,25.89
2019-04-27T05:45:53.178Z,26.15
2019-04-27T05:48:28.599Z,25.55
2019-04-27T05:51:02.122Z,26.35
2019-04-27T05:53:32.709Z,26.58
2019-04-27T05:56:03.231Z,26.63
2019-04-27T05:58:33.707Z,26.59
2019-04-27T06:01:04.215Z,26.78
2019-04-27T06:03:34.838Z,27.13
2019-04-27T06:06:06.339Z,27.41
2019-04-27T06:08:36.846Z,27.25
2019-04-27T06:11:09.240Z,27.13
2019-04-27T06:13:40.506Z,27.38
2019-04-27T06:16:11.044Z,28.39
2019-04-27T06:18:41.773Z,28.20
2019-04-27T06:21:12.407Z,27.99
2019-04-27T06:23:42.872Z,28.15
2019-04-27T06:26:13.765Z,28.55
2019-04-27T06:28:46.350Z,28.62
2019-04-27T06:31:16.803Z,27.99
2019-04-27T06:33:47.255Z,28.77
2019-04-27T06:36:19.557Z,28.44
2019-04-27T06:38:49.799Z,29.34
2019-04-27T06:41:20.284Z,28.13
2019-04-27T06:43:51.798Z,29.14
2019-04-27T06:46:22.286Z,28.75
2019-04-27T06:48:52.777Z,28.37
2019-04-27T06:51:23.201Z,27.19
2019-04-27T06:53:54.689Z,27.97
2019-04-27T06:56:26.146Z,28.86
2019-04-27T06:58:56.626Z,29.58
2019-04-27T07:01:27.162Z,28.99
2019-04-27T07:03:57.725Z,29.32
2019-04-27T07:06:28.591Z,29.60
2019-04-27T07:08:59.755Z,28.75
2019-04-27T07:11:30.436Z,29.30
2019-04-27T07:14:00.942Z,29.41
2019-04-27T07:16:31.384Z,28.82
2019-04-27T07:19:01.890Z,28.54
2019-04-27T07:21:33.292Z,27.80
2019-04-27T07:24:04.825Z,27.80
2019-04-27T07:26:35.356Z,28.79
2019-04-27T07:29:05.933Z,28.58
2019-04-27T07:31:36.405Z,29.16
2019-04-27T07:34:09.391Z,29.25
2019-04-27T07:36:40.051Z,29.83
2019-04-27T07:39:11.617Z,29.35
2019-04-27T07:41:43.164Z,29.32
2019-04-27T07:44:31.617Z,28.27
2019-04-27T07:47:15.684Z,30.03
2019-04-27T07:49:46.435Z,29.83
2019-04-27T07:52:20.454Z,29.49
2019-04-27T07:54:53.287Z,30.59
2019-04-27T07:57:28.962Z,28.44
2019-04-27T07:59:59.752Z,29.00
2019-04-27T08:02:31.333Z,28.53
2019-04-27T08:05:01.818Z,29.64
2019-04-27T08:07:32.315Z,29.80
2019-04-27T08:10:04.796Z,29.17
2019-04-27T08:12:36.373Z,29.13
2019-04-27T08:15:08.921Z,28.63
2019-04-27T08:17:40.586Z,26.87
2019-04-27T08:20:11.776Z,26.98
2019-04-27T08:22:42.278Z,27.26
2019-04-27T08:25:13.483Z,26.36
2019-04-27T08:27:45.515Z,25.95
2019-04-27T08:30:20.680Z,26.10
2019-04-27T08:32:55.767Z,25.91
2019-04-27T08:35:26.338Z,26.29
2019-04-27T08:37:56.872Z,26.58
2019-04-27T08:40:28.837Z,26.84
2019-04-27T08:42:59.364Z,26.77
2019-04-27T08:45:30.865Z,26.02
2019-04-27T08:48:01.436Z,26.13
2019-04-27T08:50:32.901Z,26.02
2019-04-27T08:53:03.376Z,25.43
2019-04-27T08:55:33.886Z,25.39
2019-04-27T08:58:04.362Z,24.74
2019-04-27T09:00:35.919Z,24.65
2019-04-27T09:03:06.447Z,24.91
2019-04-27T09:05:38.857Z,24.96
2019-04-27T09:08:14.239Z,25.01
2019-04-27T09:11:01.580Z,25.27
2019-04-27T09:13:49.049Z,25.41
2019-04-27T09:16:39.022Z,25.22
2019-04-27T09:19:13.185Z,25.26
2019-04-27T09:22:12.197Z,24.82
2019-04-27T09:24:34.442Z,24.90
2019-04-27T09:27:05.656Z,24.99
2019-04-27T09:29:36.065Z,24.69
2019-04-27T09:32:06.552Z,24.83
2019-04-27T09:34:37.483Z,24.48
2019-04-27T09:37:08.969Z,24.93
2019-04-27T09:39:40.415Z,24.97
2019-04-27T09:42:10.832Z,24.82
2019-04-27T09:44:41.381Z,24.94
2019-04-27T09:47:13.430Z,24.58
2019-04-27T09:49:45.940Z,24.80
2019-04-27T09:52:24.417Z,24.65
2019-04-27T09:54:49.287Z,24.64
2019-04-27T09:57:19.827Z,24.52
2019-04-27T09:59:51.407Z,24.16
2019-04-27T10:02:21.995Z,24.40
2019-04-27T10:04:52.520Z,24.42
2019-04-27T10:07:23.049Z,24.30
2019-04-27T10:09:53.540Z,24.19
2019-04-27T10:12:25.951Z,24.12
2019-04-27T10:14:56.173Z,24.00
2019-04-27T10:17:32.464Z,24.11
2019-04-27T10:20:02.987Z,24.38
2019-04-27T10:22:41.280Z,24.32
2019-04-27T10:25:10.499Z,24.22
2019-04-27T10:27:40.976Z,24.12
2019-04-27T10:30:15.737Z,24.42
2019-04-27T10:32:46.493Z,24.41
2019-04-27T10:35:17.020Z,24.02
2019-04-27T10:37:47.711Z,23.96
2019-04-27T10:40:20.342Z,23.89
2019-04-27T10:42:50.924Z,23.98
2019-04-27T10:45:21.425Z,23.95
2019-04-27T10:47:52.987Z,24.20
2019-04-27T10:50:26.367Z,24.12
2019-04-27T10:52:59.237Z,24.21
2019-04-27T10:55:28.914Z,24.14
2019-04-27T10:57:59.395Z,23.87
2019-04-27T11:00:43.780Z,24.02
2019-04-27T11:03:16.662Z,23.72
2019-04-27T11:05:48.867Z,23.61
2019-04-27T11:08:19.407Z,23.65
2019-04-27T11:10:49.928Z,23.79
2019-04-27T11:13:20.362Z,23.62
2019-04-27T11:15:50.927Z,23.92
2019-04-27T11:18:21.434Z,23.85
2019-04-27T11:20:51.930Z,23.82
2019-04-27T11:23:22.433Z,23.77
2019-04-27T11:25:52.920Z,23.91
2019-04-27T11:28:25.851Z,24.02
2019-04-27T11:30:57.514Z,24.01
2019-04-27T11:33:28.043Z,23.94
2019-04-27T11:36:18.583Z,23.96
2019-04-27T11:38:50.705Z,24.05
2019-04-27T11:41:22.192Z,24.15
2019-04-27T11:43:52.783Z,24.19
2019-04-27T11:46:23.308Z,24.11
2019-04-27T11:48:56.429Z,24.23
2019-04-27T11:51:27.956Z,24.27
2019-04-27T11:53:58.446Z,24.28
2019-04-27T11:56:28.970Z,23.99
2019-04-27T11:58:59.476Z,24.06
2019-04-27T12:01:29.985Z,24.03
2019-04-27T12:04:00.513Z,24.17
2019-04-27T12:06:31.033Z,24.22
2019-04-27T12:09:01.752Z,24.20
2019-04-27T12:11:36.381Z,23.97
2019-04-27T12:14:08.867Z,23.88
2019-04-27T12:16:40.392Z,23.90
2019-04-27T12:19:10.943Z,23.77
2019-04-27T12:21:43.538Z,23.83
2019-04-27T12:24:17.822Z,24.00
2019-04-27T12:26:50.917Z,24.07
2019-04-27T12:29:22.946Z,23.95
2019-04-27T12:31:56.090Z,24.00
2019-04-27T12:34:27.924Z,24.12
2019-04-27T12:36:59.222Z,24.18
2019-04-27T12:39:29.762Z,24.11
2019-04-27T12:42:00.232Z,24.16
2019-04-27T12:44:30.749Z,24.10
2019-04-27T12:47:02.608Z,24.15
2019-04-27T12:49:36.141Z,24.11
2019-04-27T12:52:06.763Z,24.14
2019-04-27T12:54:48.192Z,24.12
2019-04-27T12:57:27.767Z,24.16
2019-04-27T12:59:59.830Z,24.15
2019-04-27T13:02:34.597Z,24.21
2019-04-27T13:05:07.181Z,24.10
2019-04-27T13:07:41.241Z,24.09
2019-04-27T13:10:12.096Z,24.02
2019-04-27T13:12:42.655Z,24.13
2019-04-27T13:15:13.562Z,24.05
2019-04-27T13:17:44.072Z,24.14
2019-04-27T13:20:16.485Z,24.18
2019-04-27T13:22:47.099Z,24.25
2019-04-27T13:25:17.633Z,24.32
2019-04-27T13:27:50.978Z,24.26
2019-04-27T13:30:20.400Z,24.10
2019-04-27T13:32:51.454Z,24.08
2019-04-27T13:35:26.366Z,24.01
2019-04-27T13:37:58.125Z,24.02
2019-04-27T13:40:31.333Z,24.16
2019-04-27T13:43:09.739Z,24.03
2019-04-27T13:45:46.625Z,24.00
2019-04-27T13:48:18.984Z,24.00
2019-04-27T13:51:09.382Z,23.95
2019-04-27T13:53:40.031Z,24.08
2019-04-27T13:56:17.683Z,24.19
2019-04-27T13:58:51.473Z,24.09
2019-04-27T14:01:22.117Z,24.03
2019-04-27T14:03:57.012Z,24.03
2019-04-27T14:06:27.471Z,23.93
2019-04-27T14:08:58.855Z,23.78
2019-04-27T14:11:30.539Z,23.62
2019-04-27T14:14:01.051Z,23.68
2019-04-27T14:16:31.567Z,23.78
2019-04-27T14:19:02.095Z,23.76
2019-04-27T14:21:32.924Z,23.76
2019-04-27T14:24:03.661Z,23.70
2019-04-27T14:26:35.802Z,23.68
2019-04-27T14:29:06.344Z,23.71
2019-04-27T14:31:42.918Z,23.64
2019-04-27T14:34:14.512Z,23.64
2019-04-27T14:36:45.023Z,23.56
2019-04-27T14:39:18.459Z,23.58
2019-04-27T14:41:49.219Z,23.58
2019-04-27T14:44:20.752Z,23.52
2019-04-27T14:46:51.266Z,23.63
2019-04-27T14:49:22.813Z,23.66
2019-04-27T14:51:54.421Z,23.45
2019-04-27T14:54:28.779Z,23.58
2019-04-27T14:56:59.428Z,23.57
2019-04-27T14:59:30.218Z,23.63
2019-04-27T15:02:01.772Z,23.42
2019-04-27T15:04:33.647Z,23.44
2019-04-27T15:07:05.853Z,23.46
2019-04-27T15:09:36.348Z,23.42
2019-04-27T15:12:07.303Z,23.45
2019-04-27T15:14:38.772Z,23.38
2019-04-27T15:17:12.785Z,23.31
2019-04-27T15:19:48.455Z,23.17
2019-04-27T15:22:20.861Z,23.19
2019-04-27T15:25:06.431Z,23.16
2019-04-27T15:27:25.615Z,23.08
2019-04-27T15:30:03.128Z,23.03
2019-04-27T15:32:39.399Z,22.97
2019-04-27T15:35:09.882Z,22.76
2019-04-27T15:37:45.085Z,22.68
2019-04-27T15:40:20.254Z,22.68
2019-04-27T15:42:53.278Z,22.70
2019-04-27T15:45:24.514Z,22.70
2019-04-27T15:47:58.899Z,22.67
2019-04-27T15:50:32.188Z,22.62
2019-04-27T15:53:02.794Z,22.58
2019-04-27T15:55:39.231Z,22.55
2019-04-27T15:58:07.984Z,22.46
2019-04-27T16:00:39.664Z,22.36
2019-04-27T16:03:10.185Z,22.25
2019-04-27T16:05:40.736Z,22.26
2019-04-27T16:08:15.813Z,22.09
2019-04-27T16:10:48.704Z,22.08
2019-04-27T16:13:20.469Z,22.06
2019-04-27T16:15:53.998Z,22.00
2019-04-27T16:18:24.478Z,22.00
2019-04-27T16:20:55.345Z,21.91
2019-04-27T16:23:28.213Z,21.82
2019-04-27T16:26:00.588Z,21.75
2019-04-27T16:28:31.369Z,21.64
2019-04-27T16:31:01.894Z,21.57
2019-04-27T16:33:32.727Z,21.47
2019-04-27T16:36:06.980Z,21.34
2019-04-27T16:38:55.724Z,21.32
2019-04-27T16:41:28.059Z,21.22
2019-04-27T16:44:02.348Z,21.17
2019-04-27T16:46:34.809Z,21.10
2019-04-27T16:49:07.322Z,20.98
2019-04-27T16:51:38.299Z,20.92
2019-04-27T16:54:13.061Z,20.73
2019-04-27T16:56:45.557Z,20.70
2019-04-27T16:59:36.950Z,20.75
2019-04-27T17:01:47.377Z,20.64
2019-04-27T17:04:18.022Z,20.67
2019-04-27T17:06:49.656Z,20.56
2019-04-27T17:09:20.242Z,20.57
2019-04-27T17:11:51.858Z,20.48
2019-04-27T17:14:29.006Z,20.40
2019-04-27T17:17:10.426Z,20.40
2019-04-27T17:19:43.814Z,20.36
2019-04-27T17:22:16.194Z,20.32
2019-04-27T17:24:49.071Z,20.48
2019-04-27T17:27:21.980Z,20.43
2019-04-27T17:29:58.225Z,20.39
2019-04-27T17:32:32.052Z,20.35
2019-04-27T17:35:02.273Z,20.28
2019-04-27T17:37:33.740Z,20.20
2019-04-27T17:40:02.548Z,20.14
2019-04-27T17:42:35.155Z,19.97
2019-04-27T17:45:09.085Z,19.83
2019-04-27T17:47:40.670Z,19.79
2019-04-27T17:50:11.450Z,19.81
2019-04-27T17:52:41.912Z,19.71
2019-04-27T17:55:12.306Z,19.61
2019-04-27T17:57:44.818Z,19.53
2019-04-27T18:00:15.385Z,19.52
2019-04-27T18:02:45.903Z,19.51
2019-04-27T18:05:17.991Z,19.63
2019-04-27T18:07:48.704Z,19.68
2019-04-27T18:10:23.893Z,19.73
2019-04-27T18:12:52.669Z,19.63
2019-04-27T18:15:23.154Z,19.52
2019-04-27T18:17:55.188Z,19.55
2019-04-27T18:20:28.934Z,19.59
2019-04-27T18:23:08.931Z,19.56
2019-04-27T18:25:59.017Z,19.63
2019-04-27T18:28:32.015Z,19.69
2019-04-27T18:31:04.547Z,19.64
2019-04-27T18:33:37.078Z,19.60
2019-04-27T18:36:13.259Z,19.59
2019-04-27T18:38:41.419Z,19.64
2019-04-27T18:41:12.052Z,19.61
2019-04-27T18:43:50.652Z,19.64
2019-04-27T18:46:19.192Z,19.62
2019-04-27T18:48:50.175Z,19.51
2019-04-27T18:51:26.381Z,19.48
2019-04-27T18:53:59.742Z,19.40
2019-04-27T18:56:33.335Z,19.34
2019-04-27T18:59:03.546Z,19.36
2019-04-27T19:01:34.076Z,19.36
2019-04-27T19:04:04.572Z,19.25
2019-04-27T19:06:35.052Z,19.19
2019-04-27T19:09:08.173Z,19.16
2019-04-27T19:11:38.787Z,19.22
2019-04-27T19:14:09.420Z,19.23
2019-04-27T19:16:41.406Z,19.24
2019-04-27T19:19:12.827Z,19.21
2019-04-27T19:21:43.299Z,19.16
2019-04-27T19:24:13.782Z,19.14
2019-04-27T19:26:48.835Z,19.11
2019-04-27T19:29:29.209Z,19.11
2019-04-27T19:32:01.401Z,19.15
2019-04-27T19:34:32.905Z,19.14
2019-04-27T19:37:03.723Z,19.04
2019-04-27T19:39:34.146Z,19.02
2019-04-27T19:42:04.666Z,19.03
2019-04-27T19:44:38.821Z,19.08
2019-04-27T19:47:10.404Z,19.06
2019-04-27T19:49:41.187Z,19.01
2019-04-27T19:52:11.651Z,18.94
2019-04-27T19:54:43.149Z,18.94
2019-04-27T19:57:13.636Z,19.02
2019-04-27T19:59:48.896Z,19.09
2019-04-27T20:02:22.208Z,19.02
2019-04-27T20:04:54.309Z,19.19
2019-04-27T20:07:24.824Z,19.30
2019-04-27T20:09:58.946Z,19.44
2019-04-27T20:12:31.169Z,19.42
2019-04-27T20:15:02.521Z,19.38
2019-04-27T20:17:34.008Z,19.40
2019-04-27T20:20:10.518Z,19.32
2019-04-27T20:22:41.070Z,19.31
2019-04-27T20:25:16.800Z,19.32
2019-04-27T20:27:49.457Z,19.30
2019-04-27T20:30:21.073Z,19.32
2019-04-27T20:32:53.617Z,19.32
2019-04-27T20:35:24.111Z,19.26
2019-04-27T20:37:54.589Z,19.22
2019-04-27T20:40:27.207Z,19.25
2019-04-27T20:42:57.722Z,19.20
2019-04-27T20:45:28.245Z,19.19
2019-04-27T20:47:58.695Z,19.24
2019-04-27T20:50:30.862Z,19.24
2019-04-27T20:53:02.872Z,19.25
2019-04-27T20:55:33.499Z,19.27
2019-04-27T20:58:03.959Z,19.37
2019-04-27T21:00:35.568Z,19.33
2019-04-27T21:03:07.853Z,19.38
2019-04-27T21:05:56.090Z,19.39
2019-04-27T21:08:31.134Z,19.40
2019-04-27T21:11:02.007Z,19.39
2019-04-27T21:13:32.505Z,19.38
2019-04-27T21:16:04.007Z,19.43
2019-04-27T21:18:34.536Z,19.37
2019-04-27T21:21:04.995Z,19.36
2019-04-27T21:23:37.661Z,19.39
2019-04-27T21:26:09.198Z,19.38
2019-04-27T21:28:41.572Z,19.33
2019-04-27T21:31:12.808Z,19.28
2019-04-27T21:33:43.515Z,19.29
2019-04-27T21:36:16.057Z,19.28
2019-04-27T21:38:46.570Z,19.27
2019-04-27T21:41:18.950Z,19.26
2019-04-27T21:43:51.257Z,19.19
2019-04-27T21:46:22.878Z,19.09
2019-04-27T21:48:53.537Z,19.10
2019-04-27T21:51:23.939Z,19.07
2019-04-27T21:53:56.005Z,19.07
2019-04-27T21:56:29.157Z,19.04
2019-04-27T21:59:00.985Z,19.04
2019-04-27T22:01:32.825Z,18.98
2019-04-27T22:04:04.992Z,19.01
2019-04-27T22:06:35.496Z,18.97
2019-04-27T22:09:10.093Z,18.95
2019-04-27T22:11:42.124Z,18.88
2019-04-27T22:14:12.609Z,18.92
2019-04-27T22:16:43.064Z,18.91
2019-04-27T22:19:13.518Z,18.88
2019-04-27T22:21:45.266Z,18.93
2019-04-27T22:24:18.272Z,18.93
2019-04-27T22:26:48.782Z,18.82
2019-04-27T22:29:22.056Z,18.81
2019-04-27T22:31:52.458Z,18.89
2019-04-27T22:34:22.932Z,18.96
2019-04-27T22:36:56.713Z,18.87
2019-04-27T22:39:37.761Z,18.85
2019-04-27T22:42:26.313Z,18.83
2019-04-27T22:45:01.162Z,18.82
2019-04-27T22:47:32.757Z,18.75
2019-04-27T22:50:03.273Z,18.75
2019-04-27T22:52:33.894Z,18.72
2019-04-27T22:55:06.279Z,18.71
2019-04-27T22:57:38.377Z,18.62
2019-04-27T23:00:31.907Z,18.61
2019-04-27T23:03:06.003Z,18.54
2019-04-27T23:05:36.431Z,18.52
2019-04-27T23:08:06.907Z,18.50
2019-04-27T23:10:37.444Z,18.50
2019-04-27T23:13:07.993Z,18.49
2019-04-27T23:15:41.238Z,18.46
2019-04-27T23:18:11.734Z,18.47
2019-04-27T23:20:42.550Z,18.50
2019-04-27T23:23:13.049Z,18.43
2019-04-27T23:25:43.535Z,18.50
2019-04-27T23:28:18.020Z,18.51
2019-04-27T23:30:50.083Z,18.46
2019-04-27T23:33:21.570Z,18.43
2019-04-27T23:35:53.093Z,18.45
2019-04-27T23:38:23.600Z,18.41
2019-04-27T23:40:54.059Z,18.33
2019-04-27T23:43:25.550Z,18.29
2019-04-27T23:45:56.903Z,18.22
2019-04-27T23:48:27.409Z,18.21
2019-04-27T23:51:02.220Z,18.19
2019-04-27T23:53:35.255Z,18.17
2019-04-27T23:56:06.712Z,18.17
2019-04-27T23:58:37.219Z,18.15
